This is the latest recevied weather packets stored in our database for station/object BM2MWA-13. If no packets are shown the sender has not sent any weather packets the latest 10 day(s).
| Time | Temp. | Humidity | Pressure | Rain* | Wind** | Luminosity | Snow |
|---|---|---|---|---|---|---|---|
| 1778152023 | 26.11° C | 86% | 1007.8 hPa | 0 mm | - | - | - |
| 1778151424 | 26.11° C | 86% | 1007.7 hPa | 0 mm | - | - | - |
| 1778150823 | 26.11° C | 84% | 1007.6 hPa | 0 mm | - | - | - |
| 1778150224 | 26.11° C | 85% | 1007.6 hPa | 0 mm | - | - | - |
| 1778149624 | 26.11° C | 84% | 1007.5 hPa | 0 mm | - | - | - |
| 1778149023 | 26.11° C | 85% | 1007.4 hPa | 0 mm | - | - | - |
| 1778148423 | 26.11° C | 86% | 1007.3 hPa | 0 mm | - | - | - |
| 1778147824 | 25.56° C | 88% | 1007.3 hPa | 0 mm | - | - | - |
| 1778147223 | 26.11° C | 85% | 1007.2 hPa | 0 mm | - | - | - |
| 1778146624 | 26.11° C | 87% | 1007.1 hPa | 0 mm | - | - | - |
| 1778146024 | 25.56° C | 87% | 1006.9 hPa | 0 mm | - | - | - |
| 1778145424 | 25.56° C | 92% | 1006.8 hPa | 2.54 mm | - | - | - |
| 1778144823 | 25.56° C | 89% | 1006.7 hPa | 2.54 mm | - | - | - |
| 1778144224 | 25.56° C | 89% | 1006.7 hPa | 2.54 mm | - | - | - |
| 1778143624 | 25.56° C | 90% | 1006.6 hPa | 2.54 mm | - | - | - |
| 1778143023 | 26.11° C | 89% | 1006.5 hPa | 2.54 mm | - | - | - |
| 1778142423 | 27.78° C | 76% | 1006.5 hPa | 2.54 mm | - | - | - |
| 1778141825 | 27.78° C | 74% | 1006.4 hPa | 0 mm | - | - | - |
| 1778141223 | 28.33° C | 72% | 1006.3 hPa | 0 mm | - | - | - |
| 1778140623 | 28.89° C | 68% | 1006.3 hPa | 0 mm | - | - | - |
| 1778140023 | 28.89° C | 67% | 1006.3 hPa | 0 mm | - | - | - |
| 1778139423 | 28.89° C | 67% | 1006.2 hPa | 0 mm | - | - | - |
| 1778138823 | 28.89° C | 67% | 1006.2 hPa | 0 mm | - | - | - |
| 1778138223 | 29.44° C | 66% | 1006.3 hPa | 0 mm | - | - | - |
| 1778137623 | 29.44° C | 65% | 1006.3 hPa | 0 mm | - | - | - |
* Rain latest hour (hover to see other rain measurements)
** Current wind speed in m/s (hover to see current wind gust speed)